Lady Damla — V7MF8 — position and weather

sailwx.info

Track history (hours):
 
Tides and Currents Weather Stations Pressure Air Temp Water Temp Dewpoint Dewpoint Depression Visibility Wind Speed Wind Dir Waves Ship Positions

Lady Damla

Last reported at 2017-Dec-17 04:32 UTC. Time now 2017-Dec-17 17:46 UTC.
Position N 54°36' E 012°22'.

Length 170 m; draft 5.5 m.

Type: Cargo ship. MMSI: 538006352.

Date/timePositionNaut miles runAvg speedWind from/ knotsBaromVisibWave heightAir tempDewpointWater temp
2017-Dec-17 04:32N 54°36' E 012°22'011.3
2017-Dec-17 04:31N 54°36' E 012°22'611.1
2017-Dec-17 04:00N 54°32' E 012°16'611.5
2017-Dec-17 03:30N 54°26' E 012°13'1311.9
2017-Dec-17 02:26N 54°24' E 011°51'512.7
2017-Dec-17 02:00N 54°26' E 011°42'713.1
2017-Dec-17 01:31N 54°29' E 011°32'713.1
2017-Dec-17 01:01N 54°32' E 011°22'713.0
2017-Dec-17 00:31N 54°34' E 011°12'612.8
2017-Dec-17 00:01N 54°35' E 011°01'612.9
2017-Dec-16 23:31N 54°34' E 010°50'713.0
2017-Dec-16 23:00N 54°34' E 010°38'713.1
2017-Dec-16 22:30N 54°31' E 010°27'19 5.9
2017-Dec-16 19:15N 54°21' E 009°60'3 6.8
2017-Dec-16 18:52N 54°21' E 009°55'3 5.0
2017-Dec-16 18:21N 54°22' E 009°51'2 6.5
2017-Dec-16 18:01N 54°22' E 009°48'4 8.0
2017-Dec-16 17:31N 54°19' E 009°43'3 6.9
2017-Dec-16 17:01N 54°17' E 009°38'4 7.6
2017-Dec-16 16:31N 54°13' E 009°36'4 7.9
2017-Dec-16 16:01N 54°11' E 009°30'4 7.9
2017-Dec-16 15:31N 54°10' E 009°24'4 7.7
2017-Dec-16 14:58N 54°06' E 009°20'4 8.2
2017-Dec-16 14:31N 54°02' E 009°18'4 7.5
2017-Dec-16 14:00N 53°59' E 009°17'4 7.1
2017-Dec-16 13:30N 53°56' E 009°13'3 5.7
2017-Dec-16 13:01N 53°54' E 009°09'1 1.3
2017-Dec-16 12:31N 53°54' E 009°09'0 0.3
2017-Dec-16 12:00N 53°53' E 009°08'2 4.5
2017-Dec-16 11:30N 53°53' E 009°05'2 3.7
2017-Dec-16 11:00N 53°52' E 009°02'4 8.1
2017-Dec-16 10:30N 53°51' E 008°56'611.7
2017-Dec-16 10:00N 53°51' E 008°46'611.3
2017-Dec-16 09:30N 53°55' E 008°40'713.3
2017-Dec-16 09:00N 53°58' E 008°30'713.3
2017-Dec-16 08:30N 53°59' E 008°19'611.4
2017-Dec-16 08:00N 53°59' E 008°09'611.8
2017-Dec-16 07:30N 53°57' E 007°59'611.2
2017-Dec-16 07:00N 53°53' E 007°54'3 7.0
2017-Dec-16 06:30N 53°51' E 007°59'5 9.3
2017-Dec-16 06:00N 53°50' E 008°06'510.6
2017-Dec-16 05:30N 53°45' E 008°12'611.6
2017-Dec-16 05:00N 53°42' E 008°20'612.9
2017-Dec-16 04:30N 53°38' E 008°28'713.1
2017-Dec-16 04:00N 53°32' E 008°34'611.0
2017-Dec-16 03:30N 53°27' E 008°30'713.3
2017-Dec-16 03:00N 53°21' E 008°30'612.8
2017-Dec-16 02:30N 53°14' E 008°29'611.4
2017-Dec-16 02:00N 53°10' E 008°35'5 9.6
2017-Dec-16 01:31N 53°07' E 008°41'1 1.5
2017-Dec-16 01:00N 53°07' E 008°43'0 0.6
2017-Dec-16 00:31N 53°07' E 008°43'0 0.4
2017-Dec-16 00:00N 53°07' E 008°43'0 0.0
2017-Dec-15 23:30N 53°07' E 008°43'0 0.0
2017-Dec-15 23:00N 53°07' E 008°43'0 0.0
2017-Dec-15 22:30N 53°07' E 008°43'0 0.0
2017-Dec-15 22:00N 53°07' E 008°43'0 0.0
2017-Dec-15 21:30N 53°07' E 008°43'0 0.0
2017-Dec-15 21:00N 53°07' E 008°43'0 0.0
2017-Dec-15 20:30N 53°07' E 008°43'0 0.0
2017-Dec-15 20:00N 53°07' E 008°43'0 0.0
2017-Dec-15 19:30N 53°07' E 008°43'0 0.0
2017-Dec-15 19:00N 53°07' E 008°43'0 0.0
2017-Dec-15 18:30N 53°07' E 008°43'0 0.0
2017-Dec-15 18:00N 53°07' E 008°43'0 0.0
2017-Dec-15 17:30N 53°07' E 008°43'0 0.0
2017-Dec-15 17:00N 53°07' E 008°43'0 0.0
2017-Dec-15 16:30N 53°07' E 008°43'0 0.0
2017-Dec-15 16:00N 53°07' E 008°43'0 0.0
2017-Dec-15 15:30N 53°07' E 008°43'0 0.0
2017-Dec-15 15:00N 53°07' E 008°43'0 0.0
2017-Dec-15 14:30N 53°07' E 008°43'0 0.0
2017-Dec-15 14:00N 53°07' E 008°43'0 0.0
2017-Dec-15 13:30N 53°07' E 008°43'0 0.0
2017-Dec-15 13:00N 53°07' E 008°43'0 0.0
2017-Dec-15 12:30N 53°07' E 008°43'0 0.0
2017-Dec-15 12:00N 53°07' E 008°43'0 0.0
2017-Dec-15 11:30N 53°07' E 008°43'0 0.0
2017-Dec-15 11:00N 53°07' E 008°43'0 0.0
2017-Dec-15 10:30N 53°07' E 008°43'0 0.0
2017-Dec-15 10:00N 53°07' E 008°43'0 0.0
2017-Dec-15 09:30N 53°07' E 008°43'0 0.0
2017-Dec-15 09:00N 53°07' E 008°43'0 0.0
2017-Dec-15 08:30N 53°07' E 008°43'0 0.0
2017-Dec-15 08:00N 53°07' E 008°43'0 0.0
2017-Dec-15 07:30N 53°07' E 008°43'0 0.0
2017-Dec-15 07:00N 53°07' E 008°43'0 0.0
2017-Dec-15 06:30N 53°07' E 008°43'0 0.0
2017-Dec-15 06:00N 53°07' E 008°43'0 0.0
2017-Dec-15 05:30N 53°07' E 008°43'0 0.0
2017-Dec-15 05:00N 53°07' E 008°43'0 0.0
2017-Dec-15 04:30N 53°07' E 008°43'0 0.0
2017-Dec-15 04:00N 53°07' E 008°43'0 0.0
2017-Dec-15 02:30N 53°07' E 008°43'0 0.0
2017-Dec-15 01:00N 53°07' E 008°43'0 0.0
2017-Dec-15 00:30N 53°07' E 008°43'0 0.0
2017-Dec-14 18:30N 53°07' E 008°43'0 0.0
2017-Dec-14 18:00N 53°07' E 008°43'0 0.0
2017-Dec-14 17:30N 53°07' E 008°43'0 0.0
2017-Dec-14 17:00N 53°07' E 008°43'0 0.0
2017-Dec-14 16:30N 53°07' E 008°43'0 0.0
2017-Dec-14 16:00N 53°07' E 008°43'0 0.0
2017-Dec-14 15:00N 53°07' E 008°43'0 0.0
2017-Dec-14 14:30N 53°07' E 008°43'0 0.0
2017-Dec-14 14:00N 53°07' E 008°43'0 0.0
2017-Dec-14 13:30N 53°07' E 008°43'0 0.0
2017-Dec-14 13:00N 53°07' E 008°43'0 0.0
2017-Dec-14 12:30N 53°07' E 008°43'0 0.0
2017-Dec-14 12:00N 53°07' E 008°43'0 0.0
2017-Dec-14 11:30N 53°07' E 008°43'0 0.0
2017-Dec-14 11:00N 53°07' E 008°43'0 0.0
2017-Dec-14 10:30N 53°07' E 008°43'0 0.0
2017-Dec-14 10:00N 53°07' E 008°43'0 0.0
2017-Dec-14 09:30N 53°07' E 008°43'0 0.0
2017-Dec-14 09:00N 53°07' E 008°43'0 0.0
2017-Dec-14 08:30N 53°07' E 008°43'0 0.0
2017-Dec-14 08:00N 53°07' E 008°43'0 0.0
2017-Dec-14 07:30N 53°07' E 008°43'0 0.0
2017-Dec-14 07:00N 53°07' E 008°43'0 0.0
2017-Dec-14 06:30N 53°07' E 008°43'0 0.0
2017-Dec-14 06:00N 53°07' E 008°43'0 0.0
2017-Dec-14 05:30N 53°07' E 008°43'0 0.0
2017-Dec-14 05:00N 53°07' E 008°43'0 0.0
2017-Dec-14 04:30N 53°07' E 008°43'0 0.0
2017-Dec-14 04:00N 53°07' E 008°43'0 0.0
2017-Dec-14 03:30N 53°07' E 008°43'0 0.0
2017-Dec-14 03:00N 53°07' E 008°43'0 0.0
2017-Dec-14 02:30N 53°07' E 008°43'0 0.0
2017-Dec-14 02:00N 53°07' E 008°43'0 0.0
2017-Dec-14 01:30N 53°07' E 008°43'0 0.0
2017-Dec-14 01:00N 53°07' E 008°43'0 0.0
2017-Dec-14 00:30N 53°07' E 008°43'0 0.0
2017-Dec-14 00:00N 53°07' E 008°43'0 0.0
2017-Dec-13 23:30N 53°07' E 008°43'0 0.0
2017-Dec-13 23:00N 53°07' E 008°43'0 0.0
2017-Dec-13 22:30N 53°07' E 008°43'0 0.0
2017-Dec-13 22:00N 53°07' E 008°43'0 0.0
2017-Dec-13 21:30N 53°07' E 008°43'0 0.0
2017-Dec-13 21:00N 53°07' E 008°43'0 0.0
2017-Dec-13 20:30N 53°07' E 008°43'0 0.0
2017-Dec-13 20:00N 53°07' E 008°43'0 0.0
2017-Dec-13 19:30N 53°07' E 008°43'0 0.0
2017-Dec-13 19:00N 53°07' E 008°43'0 0.0
2017-Dec-13 18:30N 53°07' E 008°43'0 0.0
2017-Dec-13 18:00N 53°07' E 008°43'0 0.0
2017-Dec-13 17:30N 53°07' E 008°43'0 0.0
2017-Dec-13 17:00N 53°07' E 008°43'0 0.0
2017-Dec-13 16:30N 53°07' E 008°43'0 0.0
2017-Dec-13 16:00N 53°07' E 008°43'0 0.0
2017-Dec-13 15:30N 53°07' E 008°43'0 0.0
2017-Dec-13 15:00N 53°07' E 008°43'0 0.0
2017-Dec-13 14:30N 53°07' E 008°43'0 0.0
2017-Dec-13 14:00N 53°07' E 008°43'0 0.0
2017-Dec-13 13:30N 53°07' E 008°43'0 0.0
2017-Dec-13 13:00N 53°07' E 008°43'0 0.0
2017-Dec-13 12:30N 53°07' E 008°43'0 0.0
2017-Dec-13 12:00N 53°07' E 008°43'0 0.0
2017-Dec-13 11:30N 53°07' E 008°43'0 0.0
2017-Dec-13 11:00N 53°07' E 008°43'0 0.4
2017-Dec-13 10:30N 53°07' E 008°43'0 0.1
2017-Dec-13 10:00N 53°07' E 008°43'1 1.5
2017-Dec-13 09:30N 53°07' E 008°41'3 6.2
2017-Dec-13 09:00N 53°09' E 008°38'4 7.3
2017-Dec-13 08:30N 53°11' E 008°32'4 8.3
2017-Dec-13 08:00N 53°15' E 008°29'5 9.3
2017-Dec-13 07:30N 53°19' E 008°29'4 8.7
2017-Dec-13 07:00N 53°24' E 008°30'510.4
2017-Dec-13 06:30N 53°29' E 008°30'4 8.6
2017-Dec-13 06:00N 53°32' E 008°34'4 8.8
2017-Dec-13 05:30N 53°36' E 008°30'612.2
2017-Dec-13 05:00N 53°40' E 008°22'612.9
2017-Dec-13 04:30N 53°44' E 008°14'612.7
2017-Dec-13 04:00N 53°49' E 008°07'612.6
2017-Dec-13 03:30N 53°51' E 007°57'510.7
2017-Dec-13 03:00N 53°53' E 007°48'2 0.2
2017-Dec-12 18:48N 53°55' E 007°47'0 0.0
2017-Dec-12 18:27N 53°55' E 007°47'0 0.1
2017-Dec-12 17:54N 53°55' E 007°47'0 0.0
2017-Dec-12 17:06N 53°55' E 007°47'0 0.1
2017-Dec-12 16:45N 53°55' E 007°47'0 0.0
2017-Dec-12 01:12N 53°55' E 007°47'0 0.0
2017-Dec-12 00:51N 53°55' E 007°47'0 0.1
2017-Dec-12 00:30N 53°55' E 007°47'0 0.6
2017-Dec-11 23:59N 53°54' E 007°47'85 8.6
2017-Dec-11 14:03N 53°34' E 005°27'111.4
2017-Dec-11 14:00N 53°33' E 005°26'611.4
2017-Dec-11 13:28N 53°31' E 005°17'511.5
2017-Dec-11 13:00N 53°30' E 005°08'611.5
2017-Dec-11 12:30N 53°28' E 004°59'611.7
2017-Dec-11 12:00N 53°25' E 004°50'611.2
2017-Dec-11 11:26N 53°22' E 004°41'1412.6
2017-Dec-11 10:20N 53°10' E 004°30'412.7
2017-Dec-11 09:59N 53°06' E 004°27'612.6
2017-Dec-11 09:30N 53°00' E 004°23'612.4
2017-Dec-11 09:01N 52°55' E 004°18'612.0
2017-Dec-11 08:31N 52°49' E 004°14'611.5
2017-Dec-11 08:01N 52°45' E 004°08'611.4
2017-Dec-11 07:30N 52°41' E 004°01'511.0
2017-Dec-11 07:01N 52°37' E 003°55'610.7
2017-Dec-11 06:29N 52°33' E 003°48'7410.0
2017-Dec-10 23:03N 51°38' E 002°27'410.9
2017-Dec-10 22:43N 51°35' E 002°23'311.3
2017-Dec-10 22:27N 51°33' E 002°20'511.6
2017-Dec-10 22:00N 51°29' E 002°15'611.7
2017-Dec-10 21:30N 51°24' E 002°09'611.5
2017-Dec-10 21:00N 51°19' E 002°07'611.4
2017-Dec-10 20:30N 51°14' E 002°02'612.3
2017-Dec-10 20:00N 51°10' E 001°54'612.5
2017-Dec-10 19:30N 51°07' E 001°46'613.0
2017-Dec-10 19:01N 51°02' E 001°39'713.3
2017-Dec-10 18:30N 50°57' E 001°31'713.1
2017-Dec-10 18:00N 50°52' E 001°26'5211.6
2017-Dec-10 13:29N 50°22' E 000°18'1012.9
2017-Dec-10 12:44N 50°19' E 000°04'513.0
2017-Dec-10 12:21N 50°18' W 000°04'713.0
2017-Dec-10 11:47N 50°16' W 000°15'10210.7
2017-Dec-10 02:19N 49°49' W 002°47'10912.0
2017-Dec-09 17:13N 48°56' W 005°13'210.3
2017-Dec-09 17:00N 48°55' W 005°16'6 9.4
2017-Dec-09 16:23N 48°52' W 005°24'4 9.1
2017-Dec-09 15:54N 48°49' W 005°30'510.2
2017-Dec-09 15:27N 48°47' W 005°35'  
Track history (hours):
 
Tides and Currents Weather Stations Pressure Air Temp Water Temp Dewpoint Dewpoint Depression Visibility Wind Speed Wind Dir Waves Ship Positions

Lady Damla

Last reported at 2017-Dec-17 04:32 UTC. Time now 2017-Dec-17 17:46 UTC.
Position N 54°36' E 012°22'.

Length 170 m; draft 5.5 m.

Type: Cargo ship. MMSI: 538006352.

Date/timePositionNaut miles runAvg speedWind from/ knotsBaromVisibWave heightAir tempDewpointWater temp
2017-Dec-17 04:32N 54°36' E 012°22'011.3
2017-Dec-17 04:31N 54°36' E 012°22'611.1
2017-Dec-17 04:00N 54°32' E 012°16'611.5
2017-Dec-17 03:30N 54°26' E 012°13'1311.9
2017-Dec-17 02:26N 54°24' E 011°51'512.7
2017-Dec-17 02:00N 54°26' E 011°42'713.1
2017-Dec-17 01:31N 54°29' E 011°32'713.1
2017-Dec-17 01:01N 54°32' E 011°22'713.0
2017-Dec-17 00:31N 54°34' E 011°12'612.8
2017-Dec-17 00:01N 54°35' E 011°01'612.9
2017-Dec-16 23:31N 54°34' E 010°50'713.0
2017-Dec-16 23:00N 54°34' E 010°38'713.1
2017-Dec-16 22:30N 54°31' E 010°27'19 5.9
2017-Dec-16 19:15N 54°21' E 009°60'3 6.8
2017-Dec-16 18:52N 54°21' E 009°55'3 5.0
2017-Dec-16 18:21N 54°22' E 009°51'2 6.5
2017-Dec-16 18:01N 54°22' E 009°48'4 8.0
2017-Dec-16 17:31N 54°19' E 009°43'3 6.9
2017-Dec-16 17:01N 54°17' E 009°38'4 7.6
2017-Dec-16 16:31N 54°13' E 009°36'4 7.9
2017-Dec-16 16:01N 54°11' E 009°30'4 7.9
2017-Dec-16 15:31N 54°10' E 009°24'4 7.7
2017-Dec-16 14:58N 54°06' E 009°20'4 8.2
2017-Dec-16 14:31N 54°02' E 009°18'4 7.5
2017-Dec-16 14:00N 53°59' E 009°17'4 7.1
2017-Dec-16 13:30N 53°56' E 009°13'3 5.7
2017-Dec-16 13:01N 53°54' E 009°09'1 1.3
2017-Dec-16 12:31N 53°54' E 009°09'0 0.3
2017-Dec-16 12:00N 53°53' E 009°08'2 4.5
2017-Dec-16 11:30N 53°53' E 009°05'2 3.7
2017-Dec-16 11:00N 53°52' E 009°02'4 8.1
2017-Dec-16 10:30N 53°51' E 008°56'611.7
2017-Dec-16 10:00N 53°51' E 008°46'611.3
2017-Dec-16 09:30N 53°55' E 008°40'713.3
2017-Dec-16 09:00N 53°58' E 008°30'713.3
2017-Dec-16 08:30N 53°59' E 008°19'611.4
2017-Dec-16 08:00N 53°59' E 008°09'611.8
2017-Dec-16 07:30N 53°57' E 007°59'611.2
2017-Dec-16 07:00N 53°53' E 007°54'3 7.0
2017-Dec-16 06:30N 53°51' E 007°59'5 9.3
2017-Dec-16 06:00N 53°50' E 008°06'510.6
2017-Dec-16 05:30N 53°45' E 008°12'611.6
2017-Dec-16 05:00N 53°42' E 008°20'612.9
2017-Dec-16 04:30N 53°38' E 008°28'713.1
2017-Dec-16 04:00N 53°32' E 008°34'611.0
2017-Dec-16 03:30N 53°27' E 008°30'713.3
2017-Dec-16 03:00N 53°21' E 008°30'612.8
2017-Dec-16 02:30N 53°14' E 008°29'611.4
2017-Dec-16 02:00N 53°10' E 008°35'5 9.6
2017-Dec-16 01:31N 53°07' E 008°41'1 1.5
2017-Dec-16 01:00N 53°07' E 008°43'0 0.6
2017-Dec-16 00:31N 53°07' E 008°43'0 0.4
2017-Dec-16 00:00N 53°07' E 008°43'0 0.0
2017-Dec-15 23:30N 53°07' E 008°43'0 0.0
2017-Dec-15 23:00N 53°07' E 008°43'0 0.0
2017-Dec-15 22:30N 53°07' E 008°43'0 0.0
2017-Dec-15 22:00N 53°07' E 008°43'0 0.0
2017-Dec-15 21:30N 53°07' E 008°43'0 0.0
2017-Dec-15 21:00N 53°07' E 008°43'0 0.0
2017-Dec-15 20:30N 53°07' E 008°43'0 0.0
2017-Dec-15 20:00N 53°07' E 008°43'0 0.0
2017-Dec-15 19:30N 53°07' E 008°43'0 0.0
2017-Dec-15 19:00N 53°07' E 008°43'0 0.0
2017-Dec-15 18:30N 53°07' E 008°43'0 0.0
2017-Dec-15 18:00N 53°07' E 008°43'0 0.0
2017-Dec-15 17:30N 53°07' E 008°43'0 0.0
2017-Dec-15 17:00N 53°07' E 008°43'0 0.0
2017-Dec-15 16:30N 53°07' E 008°43'0 0.0
2017-Dec-15 16:00N 53°07' E 008°43'0 0.0
2017-Dec-15 15:30N 53°07' E 008°43'0 0.0
2017-Dec-15 15:00N 53°07' E 008°43'0 0.0
2017-Dec-15 14:30N 53°07' E 008°43'0 0.0
2017-Dec-15 14:00N 53°07' E 008°43'0 0.0
2017-Dec-15 13:30N 53°07' E 008°43'0 0.0
2017-Dec-15 13:00N 53°07' E 008°43'0 0.0
2017-Dec-15 12:30N 53°07' E 008°43'0 0.0
2017-Dec-15 12:00N 53°07' E 008°43'0 0.0
2017-Dec-15 11:30N 53°07' E 008°43'0 0.0
2017-Dec-15 11:00N 53°07' E 008°43'0 0.0
2017-Dec-15 10:30N 53°07' E 008°43'0 0.0
2017-Dec-15 10:00N 53°07' E 008°43'0 0.0
2017-Dec-15 09:30N 53°07' E 008°43'0 0.0
2017-Dec-15 09:00N 53°07' E 008°43'0 0.0
2017-Dec-15 08:30N 53°07' E 008°43'0 0.0
2017-Dec-15 08:00N 53°07' E 008°43'0 0.0
2017-Dec-15 07:30N 53°07' E 008°43'0 0.0
2017-Dec-15 07:00N 53°07' E 008°43'0 0.0
2017-Dec-15 06:30N 53°07' E 008°43'0 0.0
2017-Dec-15 06:00N 53°07' E 008°43'0 0.0
2017-Dec-15 05:30N 53°07' E 008°43'0 0.0
2017-Dec-15 05:00N 53°07' E 008°43'0 0.0
2017-Dec-15 04:30N 53°07' E 008°43'0 0.0
2017-Dec-15 04:00N 53°07' E 008°43'0 0.0
2017-Dec-15 02:30N 53°07' E 008°43'0 0.0
2017-Dec-15 01:00N 53°07' E 008°43'0 0.0
2017-Dec-15 00:30N 53°07' E 008°43'0 0.0
2017-Dec-14 18:30N 53°07' E 008°43'0 0.0
2017-Dec-14 18:00N 53°07' E 008°43'0 0.0
2017-Dec-14 17:30N 53°07' E 008°43'0 0.0
2017-Dec-14 17:00N 53°07' E 008°43'0 0.0
2017-Dec-14 16:30N 53°07' E 008°43'0 0.0
2017-Dec-14 16:00N 53°07' E 008°43'0 0.0
2017-Dec-14 15:00N 53°07' E 008°43'0 0.0
2017-Dec-14 14:30N 53°07' E 008°43'0 0.0
2017-Dec-14 14:00N 53°07' E 008°43'0 0.0
2017-Dec-14 13:30N 53°07' E 008°43'0 0.0
2017-Dec-14 13:00N 53°07' E 008°43'0 0.0
2017-Dec-14 12:30N 53°07' E 008°43'0 0.0
2017-Dec-14 12:00N 53°07' E 008°43'0 0.0
2017-Dec-14 11:30N 53°07' E 008°43'0 0.0
2017-Dec-14 11:00N 53°07' E 008°43'0 0.0
2017-Dec-14 10:30N 53°07' E 008°43'0 0.0
2017-Dec-14 10:00N 53°07' E 008°43'0 0.0
2017-Dec-14 09:30N 53°07' E 008°43'0 0.0
2017-Dec-14 09:00N 53°07' E 008°43'0 0.0
2017-Dec-14 08:30N 53°07' E 008°43'0 0.0
2017-Dec-14 08:00N 53°07' E 008°43'0 0.0
2017-Dec-14 07:30N 53°07' E 008°43'0 0.0
2017-Dec-14 07:00N 53°07' E 008°43'0 0.0
2017-Dec-14 06:30N 53°07' E 008°43'0 0.0
2017-Dec-14 06:00N 53°07' E 008°43'0 0.0
2017-Dec-14 05:30N 53°07' E 008°43'0 0.0
2017-Dec-14 05:00N 53°07' E 008°43'0 0.0
2017-Dec-14 04:30N 53°07' E 008°43'0 0.0
2017-Dec-14 04:00N 53°07' E 008°43'0 0.0
2017-Dec-14 03:30N 53°07' E 008°43'0 0.0
2017-Dec-14 03:00N 53°07' E 008°43'0 0.0
2017-Dec-14 02:30N 53°07' E 008°43'0 0.0
2017-Dec-14 02:00N 53°07' E 008°43'0 0.0
2017-Dec-14 01:30N 53°07' E 008°43'0 0.0
2017-Dec-14 01:00N 53°07' E 008°43'0 0.0
2017-Dec-14 00:30N 53°07' E 008°43'0 0.0
2017-Dec-14 00:00N 53°07' E 008°43'0 0.0
2017-Dec-13 23:30N 53°07' E 008°43'0 0.0
2017-Dec-13 23:00N 53°07' E 008°43'0 0.0
2017-Dec-13 22:30N 53°07' E 008°43'0 0.0
2017-Dec-13 22:00N 53°07' E 008°43'0 0.0
2017-Dec-13 21:30N 53°07' E 008°43'0 0.0
2017-Dec-13 21:00N 53°07' E 008°43'0 0.0
2017-Dec-13 20:30N 53°07' E 008°43'0 0.0
2017-Dec-13 20:00N 53°07' E 008°43'0 0.0
2017-Dec-13 19:30N 53°07' E 008°43'0 0.0
2017-Dec-13 19:00N 53°07' E 008°43'0 0.0
2017-Dec-13 18:30N 53°07' E 008°43'0 0.0
2017-Dec-13 18:00N 53°07' E 008°43'0 0.0
2017-Dec-13 17:30N 53°07' E 008°43'0 0.0
2017-Dec-13 17:00N 53°07' E 008°43'0 0.0
2017-Dec-13 16:30N 53°07' E 008°43'0 0.0
2017-Dec-13 16:00N 53°07' E 008°43'0 0.0
2017-Dec-13 15:30N 53°07' E 008°43'0 0.0
2017-Dec-13 15:00N 53°07' E 008°43'0 0.0
2017-Dec-13 14:30N 53°07' E 008°43'0 0.0
2017-Dec-13 14:00N 53°07' E 008°43'0 0.0
2017-Dec-13 13:30N 53°07' E 008°43'0 0.0
2017-Dec-13 13:00N 53°07' E 008°43'0 0.0
2017-Dec-13 12:30N 53°07' E 008°43'0 0.0
2017-Dec-13 12:00N 53°07' E 008°43'0 0.0
2017-Dec-13 11:30N 53°07' E 008°43'0 0.0
2017-Dec-13 11:00N 53°07' E 008°43'0 0.4
2017-Dec-13 10:30N 53°07' E 008°43'0 0.1
2017-Dec-13 10:00N 53°07' E 008°43'1 1.5
2017-Dec-13 09:30N 53°07' E 008°41'3 6.2
2017-Dec-13 09:00N 53°09' E 008°38'4 7.3
2017-Dec-13 08:30N 53°11' E 008°32'4 8.3
2017-Dec-13 08:00N 53°15' E 008°29'5 9.3
2017-Dec-13 07:30N 53°19' E 008°29'4 8.7
2017-Dec-13 07:00N 53°24' E 008°30'510.4
2017-Dec-13 06:30N 53°29' E 008°30'4 8.6
2017-Dec-13 06:00N 53°32' E 008°34'4 8.8
2017-Dec-13 05:30N 53°36' E 008°30'612.2
2017-Dec-13 05:00N 53°40' E 008°22'612.9
2017-Dec-13 04:30N 53°44' E 008°14'612.7
2017-Dec-13 04:00N 53°49' E 008°07'612.6
2017-Dec-13 03:30N 53°51' E 007°57'510.7
2017-Dec-13 03:00N 53°53' E 007°48'2 0.2
2017-Dec-12 18:48N 53°55' E 007°47'0 0.0
2017-Dec-12 18:27N 53°55' E 007°47'0 0.1
2017-Dec-12 17:54N 53°55' E 007°47'0 0.0
2017-Dec-12 17:06N 53°55' E 007°47'0 0.1
2017-Dec-12 16:45N 53°55' E 007°47'0 0.0
2017-Dec-12 01:12N 53°55' E 007°47'0 0.0
2017-Dec-12 00:51N 53°55' E 007°47'0 0.1
2017-Dec-12 00:30N 53°55' E 007°47'0 0.6
2017-Dec-11 23:59N 53°54' E 007°47'85 8.6
2017-Dec-11 14:03N 53°34' E 005°27'111.4
2017-Dec-11 14:00N 53°33' E 005°26'611.4
2017-Dec-11 13:28N 53°31' E 005°17'511.5
2017-Dec-11 13:00N 53°30' E 005°08'611.5
2017-Dec-11 12:30N 53°28' E 004°59'611.7
2017-Dec-11 12:00N 53°25' E 004°50'611.2
2017-Dec-11 11:26N 53°22' E 004°41'1412.6
2017-Dec-11 10:20N 53°10' E 004°30'412.7
2017-Dec-11 09:59N 53°06' E 004°27'612.6
2017-Dec-11 09:30N 53°00' E 004°23'612.4
2017-Dec-11 09:01N 52°55' E 004°18'612.0
2017-Dec-11 08:31N 52°49' E 004°14'611.5
2017-Dec-11 08:01N 52°45' E 004°08'611.4
2017-Dec-11 07:30N 52°41' E 004°01'511.0
2017-Dec-11 07:01N 52°37' E 003°55'610.7
2017-Dec-11 06:29N 52°33' E 003°48'7410.0
2017-Dec-10 23:03N 51°38' E 002°27'410.9
2017-Dec-10 22:43N 51°35' E 002°23'311.3
2017-Dec-10 22:27N 51°33' E 002°20'511.6
2017-Dec-10 22:00N 51°29' E 002°15'611.7
2017-Dec-10 21:30N 51°24' E 002°09'611.5
2017-Dec-10 21:00N 51°19' E 002°07'611.4
2017-Dec-10 20:30N 51°14' E 002°02'612.3
2017-Dec-10 20:00N 51°10' E 001°54'612.5
2017-Dec-10 19:30N 51°07' E 001°46'613.0
2017-Dec-10 19:01N 51°02' E 001°39'713.3
2017-Dec-10 18:30N 50°57' E 001°31'713.1
2017-Dec-10 18:00N 50°52' E 001°26'5211.6
2017-Dec-10 13:29N 50°22' E 000°18'1012.9
2017-Dec-10 12:44N 50°19' E 000°04'513.0
2017-Dec-10 12:21N 50°18' W 000°04'713.0
2017-Dec-10 11:47N 50°16' W 000°15'10210.7
2017-Dec-10 02:19N 49°49' W 002°47'10912.0
2017-Dec-09 17:13N 48°56' W 005°13'210.3
2017-Dec-09 17:00N 48°55' W 005°16'6 9.4
2017-Dec-09 16:23N 48°52' W 005°24'4 9.1
2017-Dec-09 15:54N 48°49' W 005°30'510.2
2017-Dec-09 15:27N 48°47' W 005°35'  

Dump ship's entire track history